createdAt,value
2024-02-14T00:01:58.649Z,94964.97
2024-02-14T00:04:25.997Z,94970.63
2024-02-14T00:06:55.482Z,94981.66
2024-02-14T00:09:22.310Z,94970.44
2024-02-14T00:11:49.411Z,94979.41
2024-02-14T00:14:17.285Z,94976.28
2024-02-14T00:16:44.482Z,94970.22
2024-02-14T00:19:14.287Z,94975.75
2024-02-14T00:21:42.744Z,94974.47
2024-02-14T00:24:09.565Z,94982.34
2024-02-14T00:26:37.207Z,94970.88
2024-02-14T00:29:04.035Z,94962.72
2024-02-14T00:31:30.859Z,94967.59
2024-02-14T00:33:57.911Z,94960.72
2024-02-14T00:36:27.760Z,94960.56
2024-02-14T00:38:54.539Z,94966.94
2024-02-14T00:41:21.988Z,94969.97
2024-02-14T00:43:48.764Z,94954.38
2024-02-14T00:46:19.059Z,94967.66
2024-02-14T00:48:46.001Z,94957.63
2024-02-14T00:51:12.852Z,94957.06
2024-02-14T00:53:39.690Z,94950.78
2024-02-14T00:56:08.274Z,94948.69
2024-02-14T00:58:35.070Z,94950.44
2024-02-14T01:01:02.832Z,94946.00
2024-02-14T01:03:29.683Z,94954.56
2024-02-14T01:05:56.533Z,94962.63
2024-02-14T01:08:23.398Z,94957.25
2024-02-14T01:10:51.460Z,94966.78
2024-02-14T01:13:19.697Z,94963.00
2024-02-14T01:15:49.252Z,94965.41
2024-02-14T01:18:21.011Z,94968.28
2024-02-14T01:20:50.859Z,94970.38
2024-02-14T01:23:17.942Z,94975.22
2024-02-14T01:25:48.295Z,94977.34
2024-02-14T01:28:15.518Z,94977.25
2024-02-14T01:30:43.755Z,94979.06
2024-02-14T01:33:10.705Z,94954.91
2024-02-14T01:35:37.685Z,94953.25
2024-02-14T01:38:05.448Z,94959.50
2024-02-14T01:40:32.318Z,94963.78
2024-02-14T01:42:59.166Z,94966.38
2024-02-14T01:45:26.084Z,94951.06
2024-02-14T01:47:53.084Z,94956.34
2024-02-14T01:50:20.083Z,94955.22
2024-02-14T01:52:49.714Z,94970.88
2024-02-14T01:55:16.510Z,94975.06
2024-02-14T01:57:43.276Z,94977.59
2024-02-14T02:00:10.334Z,94979.69
2024-02-14T02:02:37.274Z,94980.22
2024-02-14T02:05:05.437Z,94977.44
2024-02-14T02:07:33.252Z,94976.84
2024-02-14T02:10:00.170Z,94973.59
2024-02-14T02:12:27.816Z,94974.72
2024-02-14T02:14:54.993Z,94980.47
2024-02-14T02:17:22.827Z,94973.25
2024-02-14T02:19:50.030Z,94976.16
2024-02-14T02:22:16.889Z,94973.69
2024-02-14T02:24:43.717Z,94969.38
2024-02-14T02:27:10.819Z,94971.78
2024-02-14T02:29:38.939Z,94971.25
2024-02-14T02:32:06.214Z,94965.22
2024-02-14T02:34:33.181Z,94952.66
2024-02-14T02:37:00.035Z,94949.25
2024-02-14T02:39:26.842Z,94953.31
2024-02-14T02:41:53.634Z,94956.19
2024-02-14T02:44:20.494Z,94943.91
2024-02-14T02:46:48.344Z,94949.59
2024-02-14T02:49:16.016Z,94935.59
2024-02-14T02:51:43.006Z,94933.38
2024-02-14T02:54:10.156Z,94930.28
2024-02-14T02:56:37.659Z,94938.84
2024-02-14T02:59:05.564Z,94943.13
2024-02-14T03:01:38.490Z,94944.69
2024-02-14T03:04:08.339Z,94940.53
2024-02-14T03:06:35.523Z,94940.91
2024-02-14T03:09:05.207Z,94948.47
2024-02-14T03:11:34.982Z,94956.09
2024-02-14T03:14:04.626Z,94959.03
2024-02-14T03:16:31.946Z,94955.41
2024-02-14T03:18:59.296Z,94960.53
2024-02-14T03:21:26.182Z,94959.75
2024-02-14T03:23:52.994Z,94956.00
2024-02-14T03:26:19.967Z,94950.09
2024-02-14T03:28:46.823Z,94954.72
2024-02-14T03:31:13.604Z,94955.50
2024-02-14T03:33:40.652Z,94961.47
2024-02-14T03:36:10.413Z,94959.94
2024-02-14T03:38:38.403Z,94973.66
2024-02-14T03:41:07.920Z,94973.34
2024-02-14T03:43:37.548Z,94971.50
2024-02-14T03:46:04.517Z,94965.31
2024-02-14T03:48:32.604Z,94964.66
2024-02-14T03:51:02.346Z,94963.31
2024-02-14T03:53:29.262Z,94963.06
2024-02-14T03:55:57.844Z,94955.69
2024-02-14T03:58:24.756Z,94951.31
2024-02-14T04:00:51.564Z,94950.78
2024-02-14T04:03:18.451Z,94951.25
2024-02-14T04:05:45.405Z,94956.44
2024-02-14T04:08:12.527Z,94951.78
2024-02-14T04:10:39.776Z,94966.34
2024-02-14T04:13:06.692Z,94970.47
2024-02-14T04:15:33.689Z,94975.88
2024-02-14T04:18:03.009Z,94979.25
2024-02-14T04:20:32.564Z,94986.19
2024-02-14T04:22:59.425Z,94989.16
2024-02-14T04:25:29.329Z,94992.47
2024-02-14T04:27:56.432Z,94987.22
2024-02-14T04:30:23.640Z,94982.09
2024-02-14T04:32:56.924Z,94987.00
2024-02-14T04:35:24.054Z,94985.88
2024-02-14T04:37:53.686Z,94989.13
2024-02-14T04:40:20.575Z,94981.66
2024-02-14T04:42:47.827Z,94988.03
2024-02-14T04:45:15.408Z,94984.75
2024-02-14T04:47:45.243Z,94975.53
2024-02-14T04:50:12.029Z,94987.97
2024-02-14T04:52:38.788Z,94990.00
2024-02-14T04:55:06.553Z,94991.53
2024-02-14T04:57:33.423Z,94990.88
2024-02-14T05:00:00.340Z,94995.03
2024-02-14T05:02:27.459Z,94998.34
2024-02-14T05:04:54.306Z,95004.09
2024-02-14T05:07:21.133Z,95018.34
2024-02-14T05:09:48.387Z,95016.59
2024-02-14T05:12:15.214Z,95004.38
2024-02-14T05:14:42.161Z,95013.53
2024-02-14T05:17:09.301Z,95001.13
2024-02-14T05:19:36.134Z,95002.69
2024-02-14T05:22:02.950Z,95011.72
2024-02-14T05:24:29.784Z,95012.34
2024-02-14T05:26:58.411Z,95011.03
2024-02-14T05:29:26.310Z,95004.59
2024-02-14T05:31:56.014Z,94994.03
2024-02-14T05:34:23.024Z,94994.47
2024-02-14T05:36:49.932Z,94997.75
2024-02-14T05:39:19.495Z,95002.88
2024-02-14T05:41:46.464Z,95006.28
2024-02-14T05:44:16.338Z,94999.63
2024-02-14T05:46:46.005Z,94999.84
2024-02-14T05:49:15.784Z,94997.25
2024-02-14T05:51:45.460Z,94996.59
2024-02-14T05:54:12.428Z,94994.31
2024-02-14T05:56:40.087Z,95005.53
2024-02-14T05:59:10.388Z,95003.84
2024-02-14T06:01:38.713Z,95005.13
2024-02-14T06:04:06.333Z,95003.41
2024-02-14T06:06:33.656Z,95004.78
2024-02-14T06:09:01.042Z,95009.59
2024-02-14T06:11:30.803Z,95001.22
2024-02-14T06:13:57.937Z,95006.78
2024-02-14T06:16:25.063Z,95003.03
2024-02-14T06:18:54.629Z,95013.41
2024-02-14T06:21:22.138Z,95005.84
2024-02-14T06:23:49.470Z,95016.47
2024-02-14T06:26:16.233Z,95019.25
2024-02-14T06:28:43.518Z,95013.03
2024-02-14T06:31:13.101Z,95021.53
2024-02-14T06:33:41.264Z,95020.69
2024-02-14T06:36:11.023Z,95030.44
2024-02-14T06:38:37.997Z,95031.81
2024-02-14T06:41:05.220Z,95032.38
2024-02-14T06:43:32.583Z,95032.72
2024-02-14T06:45:59.707Z,95031.88
2024-02-14T06:48:27.114Z,95022.41
2024-02-14T06:50:56.622Z,95016.97
2024-02-14T06:53:23.996Z,95022.53
2024-02-14T06:55:53.717Z,95022.75
2024-02-14T06:58:20.522Z,95013.59
2024-02-14T07:00:47.794Z,95008.63
2024-02-14T07:03:18.620Z,95026.16
2024-02-14T07:05:45.730Z,95017.53
2024-02-14T07:08:13.095Z,95015.53
2024-02-14T07:10:42.818Z,95011.25
2024-02-14T07:13:10.634Z,95013.63
2024-02-14T07:15:40.929Z,95011.56
2024-02-14T07:18:11.083Z,95006.56
2024-02-14T07:20:38.124Z,95019.88
2024-02-14T07:23:05.827Z,95019.19
2024-02-14T07:25:32.685Z,95017.91
2024-02-14T07:28:00.267Z,95018.94
2024-02-14T07:30:27.475Z,95016.44
2024-02-14T07:32:54.685Z,95018.72
2024-02-14T07:35:24.161Z,95017.31
2024-02-14T07:37:54.028Z,95007.91
2024-02-14T07:40:25.257Z,95009.81
2024-02-14T07:42:52.104Z,95009.00
2024-02-14T07:45:19.322Z,95012.75
2024-02-14T07:47:46.523Z,95017.34
2024-02-14T07:50:14.010Z,95021.41
2024-02-14T07:52:48.915Z,95022.22
2024-02-14T07:55:16.758Z,95024.59
2024-02-14T07:57:46.339Z,95022.00
2024-02-14T08:00:15.201Z,95027.63
2024-02-14T08:02:42.751Z,95027.72
2024-02-14T08:05:09.560Z,95034.91
2024-02-14T08:07:39.227Z,95033.75
2024-02-14T08:10:09.325Z,95035.47
2024-02-14T08:12:37.518Z,95038.66
2024-02-14T08:15:07.425Z,95032.97
2024-02-14T08:17:35.716Z,95033.78
2024-02-14T08:20:03.246Z,95034.91
2024-02-14T08:22:31.135Z,95046.75
2024-02-14T08:24:59.063Z,95051.59
2024-02-14T08:27:25.945Z,95047.84
2024-02-14T08:29:55.750Z,95052.03
2024-02-14T08:32:26.989Z,95048.63
2024-02-14T08:34:54.960Z,95048.78
2024-02-14T08:37:21.946Z,95051.59
2024-02-14T08:39:51.541Z,95039.09
2024-02-14T08:42:19.063Z,95033.03
2024-02-14T08:44:47.672Z,95030.22
2024-02-14T08:47:17.272Z,95029.91
2024-02-14T08:49:44.995Z,95023.66
2024-02-14T08:52:11.828Z,95034.22
2024-02-14T08:54:39.042Z,95024.97
2024-02-14T08:57:13.063Z,95029.69
2024-02-14T08:59:40.218Z,95031.47
2024-02-14T09:02:07.282Z,95028.56
2024-02-14T09:04:34.433Z,95020.41
2024-02-14T09:07:04.529Z,95028.66
2024-02-14T09:09:32.000Z,95022.09
2024-02-14T09:11:59.255Z,95035.97
2024-02-14T09:14:27.002Z,95047.78
2024-02-14T09:16:55.690Z,95038.34
2024-02-14T09:19:25.500Z,95032.94
2024-02-14T09:21:53.084Z,95038.28
2024-02-14T09:24:21.580Z,95034.63
2024-02-14T09:26:48.526Z,95037.56
2024-02-14T09:29:15.852Z,95031.47
2024-02-14T09:31:45.586Z,95035.91
2024-02-14T09:34:12.693Z,95040.88
2024-02-14T09:36:40.241Z,95034.53
2024-02-14T09:39:07.135Z,95033.63
2024-02-14T09:41:41.683Z,95035.69
2024-02-14T09:44:09.091Z,95026.00
2024-02-14T09:46:39.473Z,95018.50
2024-02-14T09:49:07.625Z,95021.16
2024-02-14T09:51:35.138Z,95009.13
2024-02-14T09:54:02.182Z,95006.47
2024-02-14T09:56:30.694Z,95010.69
2024-02-14T09:58:58.121Z,95023.34
2024-02-14T10:01:26.178Z,95017.44
2024-02-14T10:03:54.005Z,95034.91
2024-02-14T10:06:22.460Z,95038.91
2024-02-14T10:08:58.465Z,95043.16
2024-02-14T10:11:34.096Z,95046.16
2024-02-14T10:14:01.305Z,95029.91
2024-02-14T10:16:28.557Z,95036.94
2024-02-14T10:18:55.950Z,95038.19
2024-02-14T10:21:24.168Z,95039.00
2024-02-14T10:23:51.972Z,95034.50
2024-02-14T10:26:20.156Z,95037.69
2024-02-14T10:28:50.277Z,95037.47
2024-02-14T10:31:19.089Z,95044.84
2024-02-14T10:33:46.947Z,95041.16
2024-02-14T10:36:16.940Z,95054.72
2024-02-14T10:38:44.546Z,95047.84
2024-02-14T10:41:11.637Z,95034.97
2024-02-14T10:43:38.953Z,95037.63
2024-02-14T10:46:09.403Z,95042.94
2024-02-14T10:48:38.210Z,95038.09
2024-02-14T10:51:06.039Z,95040.81
2024-02-14T10:53:34.658Z,95045.75
2024-02-14T10:56:02.068Z,95047.06
2024-02-14T10:58:30.982Z,95038.22
2024-02-14T11:00:57.773Z,95046.16
2024-02-14T11:03:25.120Z,95045.59
2024-02-14T11:05:54.520Z,95053.38
2024-02-14T11:08:21.689Z,95056.31
2024-02-14T11:10:56.869Z,95050.72
2024-02-14T11:13:28.017Z,95054.94
2024-02-14T11:15:58.277Z,95056.25
2024-02-14T11:18:28.914Z,95061.94
2024-02-14T11:20:56.224Z,95066.13
2024-02-14T11:23:23.296Z,95066.59
2024-02-14T11:25:51.841Z,95058.69
2024-02-14T11:28:25.655Z,95066.59
2024-02-14T11:30:55.464Z,95061.53
2024-02-14T11:33:27.592Z,95051.56
2024-02-14T11:35:56.494Z,95051.00
2024-02-14T11:38:26.444Z,95056.31
2024-02-14T11:40:56.665Z,95052.59
2024-02-14T11:43:25.330Z,95057.16
2024-02-14T11:45:52.182Z,95041.75
2024-02-14T11:48:19.410Z,95045.63
2024-02-14T11:50:46.516Z,95039.34
2024-02-14T11:53:16.631Z,95034.91
2024-02-14T11:55:44.533Z,95034.75
2024-02-14T11:58:12.001Z,95034.50
2024-02-14T12:00:40.305Z,95031.09
2024-02-14T12:03:18.131Z,95029.63
2024-02-14T12:05:47.217Z,95033.84
2024-02-14T12:08:14.450Z,95029.25
2024-02-14T12:10:43.762Z,95027.75
2024-02-14T12:13:17.665Z,95025.69
2024-02-14T12:15:46.601Z,95018.38
2024-02-14T12:18:18.307Z,95024.41
2024-02-14T12:20:45.417Z,95026.34
2024-02-14T12:23:19.228Z,95033.16
2024-02-14T12:25:51.893Z,95024.09
2024-02-14T12:28:19.344Z,95026.13
2024-02-14T12:30:51.264Z,95024.38
2024-02-14T12:33:18.423Z,95026.56
2024-02-14T12:35:49.564Z,95020.44
2024-02-14T12:38:20.252Z,95026.78
2024-02-14T12:40:47.883Z,95012.91
2024-02-14T12:43:15.485Z,95015.41
2024-02-14T12:45:45.288Z,95014.53
2024-02-14T12:48:12.744Z,95002.69
2024-02-14T12:50:41.558Z,94990.03
2024-02-14T12:53:08.739Z,94990.84
2024-02-14T12:55:35.680Z,94991.69
2024-02-14T12:58:03.663Z,94981.50
2024-02-14T13:00:30.671Z,94983.44
2024-02-14T13:02:58.323Z,94981.91
2024-02-14T13:05:28.439Z,94983.19
2024-02-14T13:07:58.191Z,94978.66
2024-02-14T13:10:24.990Z,94980.03
2024-02-14T13:12:52.050Z,94977.47
2024-02-14T13:15:19.419Z,94986.09
2024-02-14T13:17:46.754Z,94982.97
2024-02-14T13:20:14.326Z,94974.59
2024-02-14T13:22:44.574Z,94977.09
2024-02-14T13:25:15.264Z,94975.06
2024-02-14T13:27:45.490Z,94973.06
2024-02-14T13:30:14.084Z,94966.31
2024-02-14T13:32:41.590Z,94964.56
2024-02-14T13:35:13.450Z,94959.50
2024-02-14T13:37:40.310Z,94955.06
2024-02-14T13:40:08.072Z,94956.03
2024-02-14T13:42:37.989Z,94967.97
2024-02-14T13:45:10.857Z,94957.16
2024-02-14T13:47:38.448Z,94950.66
2024-02-14T13:50:06.623Z,94958.56
2024-02-14T13:52:33.858Z,94953.16
2024-02-14T13:55:01.664Z,94952.66
2024-02-14T13:57:29.519Z,94934.69
2024-02-14T13:59:56.578Z,94935.59
2024-02-14T14:02:26.348Z,94939.75
2024-02-14T14:04:55.886Z,94931.66
2024-02-14T14:07:23.205Z,94936.91
2024-02-14T14:09:52.659Z,94934.31
2024-02-14T14:12:22.242Z,94935.56
2024-02-14T14:14:49.746Z,94945.38
2024-02-14T14:17:19.430Z,94949.63
2024-02-14T14:19:48.871Z,94956.34
2024-02-14T14:22:18.667Z,94948.63
2024-02-14T14:24:47.246Z,94948.16
2024-02-14T14:27:14.847Z,94946.84
2024-02-14T14:29:42.289Z,94941.31
2024-02-14T14:32:11.106Z,94941.84
2024-02-14T14:34:40.960Z,94940.88
2024-02-14T14:37:08.878Z,94948.75
2024-02-14T14:39:35.771Z,94953.72
2024-02-14T14:42:03.074Z,94953.63
2024-02-14T14:44:32.906Z,94942.91
2024-02-14T14:47:03.080Z,94944.34
2024-02-14T14:49:32.300Z,94940.31
2024-02-14T14:52:00.731Z,94943.91
2024-02-14T14:54:29.069Z,94934.91
2024-02-14T14:56:56.431Z,94934.84
2024-02-14T14:59:23.864Z,94934.84
2024-02-14T15:01:50.954Z,94931.84
2024-02-14T15:04:20.216Z,94932.38
2024-02-14T15:06:48.841Z,94933.47
2024-02-14T15:09:16.341Z,94931.00
2024-02-14T15:11:45.996Z,94927.44
2024-02-14T15:14:13.259Z,94929.66
2024-02-14T15:16:40.039Z,94915.50
2024-02-14T15:19:06.994Z,94917.13
2024-02-14T15:21:35.169Z,94924.91
2024-02-14T15:24:02.067Z,94930.16
2024-02-14T15:26:29.352Z,94923.50
2024-02-14T15:28:56.489Z,94930.09
2024-02-14T15:31:26.190Z,94930.22
2024-02-14T15:33:54.912Z,94921.84
2024-02-14T15:36:24.736Z,94924.59
2024-02-14T15:38:52.500Z,94929.56
2024-02-14T15:41:20.629Z,94943.09
2024-02-14T15:43:47.798Z,94938.34
2024-02-14T15:46:14.624Z,94934.00
2024-02-14T15:48:41.932Z,94922.50
2024-02-14T15:51:11.733Z,94915.72
2024-02-14T15:53:39.885Z,94926.16
2024-02-14T15:56:09.661Z,94927.25
2024-02-14T15:58:36.920Z,94929.84
2024-02-14T16:01:05.722Z,94934.09
2024-02-14T16:03:33.000Z,94939.13
2024-02-14T16:06:01.447Z,94935.50
2024-02-14T16:08:29.002Z,94929.22
2024-02-14T16:10:56.576Z,94932.63
2024-02-14T16:13:24.837Z,94916.78
2024-02-14T16:15:52.792Z,94922.09
2024-02-14T16:18:19.845Z,94922.44
2024-02-14T16:20:49.580Z,94920.69
2024-02-14T16:23:19.993Z,94922.25
2024-02-14T16:25:48.082Z,94926.94
2024-02-14T16:28:17.721Z,94925.66
2024-02-14T16:30:46.021Z,94919.28
2024-02-14T16:33:15.785Z,94912.03
2024-02-14T16:35:43.096Z,94918.03
2024-02-14T16:38:10.373Z,94912.03
2024-02-14T16:40:37.275Z,94910.53
2024-02-14T16:43:04.834Z,94905.66
2024-02-14T16:45:32.669Z,94909.88
2024-02-14T16:48:00.401Z,94922.34
2024-02-14T16:50:27.265Z,94919.94
2024-02-14T16:52:54.232Z,94919.59
2024-02-14T16:55:21.589Z,94917.25
2024-02-14T16:57:50.954Z,94930.34
2024-02-14T17:00:19.201Z,94929.53
2024-02-14T17:02:46.087Z,94936.13
2024-02-14T17:05:13.394Z,94930.66
2024-02-14T17:07:43.434Z,94928.63
2024-02-14T17:10:10.797Z,94932.69
2024-02-14T17:12:38.734Z,94934.22
2024-02-14T17:15:06.431Z,94947.94
2024-02-14T17:17:34.785Z,94942.50
2024-02-14T17:20:04.682Z,94954.88
2024-02-14T17:22:34.251Z,94954.72
2024-02-14T17:25:04.360Z,94963.44
2024-02-14T17:27:31.935Z,94974.09
2024-02-14T17:30:01.726Z,94978.84
2024-02-14T17:32:36.179Z,94972.75
2024-02-14T17:35:10.503Z,94968.09
2024-02-14T17:37:40.557Z,94971.22
2024-02-14T17:40:12.118Z,94967.19
2024-02-14T17:42:39.320Z,94982.13
2024-02-14T17:45:06.460Z,94965.97
2024-02-14T17:47:36.334Z,94973.22
2024-02-14T17:50:04.220Z,94967.78
2024-02-14T17:52:31.499Z,94975.31
2024-02-14T17:54:59.273Z,94981.25
2024-02-14T17:57:26.314Z,94980.66
2024-02-14T17:59:53.281Z,94980.88
2024-02-14T18:02:21.406Z,94987.06
2024-02-14T18:04:48.784Z,94997.59
2024-02-14T18:07:16.071Z,94991.78
2024-02-14T18:09:43.187Z,95000.16
2024-02-14T18:12:10.444Z,95005.38
2024-02-14T18:14:37.680Z,94999.53
2024-02-14T18:17:04.960Z,94998.09
2024-02-14T18:19:32.173Z,95006.41
2024-02-14T18:22:02.046Z,95000.81
2024-02-14T18:24:29.231Z,94995.72
2024-02-14T18:26:59.084Z,94996.28
2024-02-14T18:29:27.392Z,94995.88
2024-02-14T18:31:55.993Z,94993.19
2024-02-14T18:34:24.262Z,94997.13
2024-02-14T18:36:52.389Z,94998.25
2024-02-14T18:39:22.403Z,94988.88
2024-02-14T18:41:52.002Z,94986.59
2024-02-14T18:44:19.205Z,94988.97
2024-02-14T18:46:46.035Z,94993.13
2024-02-14T18:49:13.624Z,94986.53
2024-02-14T18:51:40.601Z,94989.22
2024-02-14T18:54:07.559Z,94987.56
2024-02-14T18:56:37.341Z,94981.84
2024-02-14T18:59:04.495Z,94973.03
2024-02-14T19:01:31.754Z,94980.63
2024-02-14T19:03:59.842Z,94981.53
2024-02-14T19:06:27.051Z,94985.66
2024-02-14T19:08:54.569Z,94977.72
2024-02-14T19:11:23.092Z,94983.53
2024-02-14T19:13:55.446Z,94989.69
2024-02-14T19:16:28.392Z,94983.53
2024-02-14T19:18:59.632Z,94979.75
2024-02-14T19:21:29.341Z,94972.81
2024-02-14T19:23:56.280Z,94967.56
2024-02-14T19:26:23.459Z,94963.56
2024-02-14T19:28:51.105Z,94960.06
2024-02-14T19:31:17.916Z,94959.41
2024-02-14T19:33:47.916Z,94956.31
2024-02-14T19:36:15.170Z,94958.88
2024-02-14T19:38:42.397Z,94953.84
2024-02-14T19:41:09.471Z,94967.47
2024-02-14T19:43:40.052Z,94965.88
2024-02-14T19:46:10.171Z,94961.00
2024-02-14T19:48:40.075Z,94958.97
2024-02-14T19:51:09.809Z,94958.63
2024-02-14T19:53:39.426Z,94959.53
2024-02-14T19:56:08.999Z,94954.72
2024-02-14T19:58:36.242Z,94948.59
2024-02-14T20:01:03.609Z,94943.56
2024-02-14T20:03:31.163Z,94935.31
2024-02-14T20:05:58.848Z,94935.09
2024-02-14T20:08:25.762Z,94934.41
2024-02-14T20:10:52.557Z,94940.34
2024-02-14T20:13:19.403Z,94938.91
2024-02-14T20:15:46.584Z,94934.22
2024-02-14T20:18:17.280Z,94938.31
2024-02-14T20:20:45.074Z,94931.78
2024-02-14T20:23:14.950Z,94935.13
2024-02-14T20:25:44.330Z,94930.38
2024-02-14T20:28:11.619Z,94932.91
2024-02-14T20:30:38.913Z,94933.13
2024-02-14T20:33:11.998Z,94941.69
2024-02-14T20:35:39.096Z,94933.47
2024-02-14T20:38:06.362Z,94931.03
2024-02-14T20:40:33.616Z,94936.34
2024-02-14T20:43:00.877Z,94940.31
2024-02-14T20:45:30.605Z,94939.19
2024-02-14T20:47:57.894Z,94940.53
2024-02-14T20:50:25.077Z,94932.88
2024-02-14T20:52:54.613Z,94932.31
2024-02-14T20:55:21.855Z,94930.53
2024-02-14T20:57:48.598Z,94931.88
2024-02-14T21:00:16.817Z,94927.22
2024-02-14T21:02:44.518Z,94929.97
2024-02-14T21:05:12.318Z,94937.78
2024-02-14T21:07:39.506Z,94938.25
2024-02-14T21:10:07.968Z,94936.09
2024-02-14T21:12:37.680Z,94934.59
2024-02-14T21:15:07.708Z,94941.53
2024-02-14T21:17:37.645Z,94942.88
2024-02-14T21:20:05.062Z,94939.19
2024-02-14T21:22:32.180Z,94937.88
2024-02-14T21:24:59.014Z,94935.50
2024-02-14T21:27:28.756Z,94933.78
2024-02-14T21:29:55.969Z,94937.38
2024-02-14T21:32:25.702Z,94937.09
2024-02-14T21:34:52.908Z,94930.13
2024-02-14T21:37:20.181Z,94925.63
2024-02-14T21:39:48.816Z,94924.75
2024-02-14T21:42:15.978Z,94918.16
2024-02-14T21:44:43.154Z,94917.00
2024-02-14T21:47:11.594Z,94921.81
2024-02-14T21:49:39.139Z,94914.63
2024-02-14T21:52:06.293Z,94913.66
2024-02-14T21:54:33.450Z,94901.59
2024-02-14T21:57:06.447Z,94908.97
2024-02-14T21:59:36.097Z,94905.13
2024-02-14T22:02:03.950Z,94898.69
2024-02-14T22:04:31.346Z,94901.31
2024-02-14T22:06:59.623Z,94901.88
2024-02-14T22:09:27.185Z,94896.50
2024-02-14T22:11:55.367Z,94893.69
2024-02-14T22:14:24.987Z,94900.31
2024-02-14T22:16:54.672Z,94893.53
2024-02-14T22:19:21.474Z,94893.00
2024-02-14T22:21:48.282Z,94898.03
2024-02-14T22:24:18.597Z,94897.22
2024-02-14T22:26:45.992Z,94885.00
2024-02-14T22:29:15.568Z,94892.94
2024-02-14T22:31:42.864Z,94892.16
2024-02-14T22:34:12.542Z,94896.75
2024-02-14T22:36:39.511Z,94898.47
2024-02-14T22:39:09.289Z,94896.66
2024-02-14T22:41:42.008Z,94899.25
2024-02-14T22:44:09.016Z,94898.09
2024-02-14T22:46:39.219Z,94895.50
2024-02-14T22:49:06.595Z,94899.69
2024-02-14T22:51:34.439Z,94891.03
2024-02-14T22:54:01.803Z,94900.31
2024-02-14T22:56:30.024Z,94898.34
2024-02-14T22:58:57.552Z,94896.16
2024-02-14T23:01:26.186Z,94899.66
2024-02-14T23:03:56.697Z,94892.69
2024-02-14T23:06:23.591Z,94893.19
2024-02-14T23:08:50.825Z,94892.91
2024-02-14T23:11:17.601Z,94907.97
2024-02-14T23:13:44.913Z,94898.41
2024-02-14T23:16:12.227Z,94897.81
2024-02-14T23:18:39.638Z,94899.38
2024-02-14T23:21:09.377Z,94894.94
2024-02-14T23:23:41.160Z,94898.91
2024-02-14T23:26:08.060Z,94889.59
2024-02-14T23:28:37.813Z,94899.19
2024-02-14T23:31:05.441Z,94894.78
2024-02-14T23:33:33.183Z,94891.09
2024-02-14T23:36:01.102Z,94891.53
2024-02-14T23:38:29.352Z,94892.16
2024-02-14T23:40:56.192Z,94896.00
2024-02-14T23:43:23.089Z,94889.19
2024-02-14T23:45:50.322Z,94890.13
2024-02-14T23:48:18.018Z,94890.03
2024-02-14T23:50:48.345Z,94891.09
2024-02-14T23:53:15.810Z,94888.94
2024-02-14T23:55:42.906Z,94891.38
2024-02-14T23:58:10.398Z,94897.97
